Time;durP1;ratioP1;P1;durP2;ratioP2;P2;SDS_P1;SDS_P2;PMS_P1;PMS_P2;Temp;Humidity;BMP_temperature;BMP_pressure;BME280_temperature;BME280_humidity;BME280_pressure;Samples;Min_cycle;Max_cycle;Signal;HPM_P1;HPM_P2
2022/03/24 00:00:39;;;;;;;18.70;12.57;;;6.20;97.10;;;;;;5029577;28;20294;-86
2022/03/24 00:03:08;;;;;;;19.07;12.43;;;6.20;97.20;;;;;;5028577;28;20223;-86
2022/03/24 00:05:34;;;;;;;19.93;12.97;;;6.10;97.70;;;;;;5030101;28;20285;-86
2022/03/24 00:08:01;;;;;;;21.50;13.73;;;6.00;97.80;;;;;;5013568;28;20234;-86
2022/03/24 00:10:27;;;;;;;19.63;13.60;;;5.90;98.10;;;;;;5012960;28;20179;-86
2022/03/24 00:12:55;;;;;;;18.80;12.67;;;5.90;97.90;;;;;;5029747;28;20192;-86
2022/03/24 00:15:22;;;;;;;17.67;12.20;;;5.90;98.00;;;;;;5013564;28;20218;-86
2022/03/24 00:17:47;;;;;;;17.93;12.77;;;5.90;98.20;;;;;;5013388;28;20191;-86
2022/03/24 00:20:14;;;;;;;20.23;13.70;;;5.90;98.40;;;;;;5029510;28;20191;-87
2022/03/24 00:22:40;;;;;;;20.67;13.30;;;5.90;98.30;;;;;;5013195;28;20237;-86
2022/03/24 00:25:07;;;;;;;22.03;13.13;;;5.90;97.80;;;;;;5013583;28;20185;-86
2022/03/24 00:27:33;;;;;;;20.10;12.83;;;5.80;97.50;;;;;;5013709;28;20436;-86
2022/03/24 00:29:59;;;;;;;18.37;13.00;;;5.80;97.80;;;;;;4998493;28;20702;-86
2022/03/24 00:32:25;;;;;;;20.10;13.17;;;5.70;98.10;;;;;;4994631;28;20202;-86
2022/03/24 00:34:51;;;;;;;20.80;12.70;;;5.60;98.10;;;;;;4994760;28;20226;-86
2022/03/24 00:37:17;;;;;;;17.73;13.00;;;5.60;98.60;;;;;;4995184;28;20190;-86
2022/03/24 00:39:43;;;;;;;19.93;12.37;;;5.60;98.30;;;;;;4994893;28;20276;-86
2022/03/24 00:42:12;;;;;;;19.17;11.10;;;5.60;98.30;;;;;;4994666;28;20257;-86
2022/03/24 00:44:42;;;;;;;18.17;12.00;;;5.60;98.90;;;;;;4993493;28;20180;-86
2022/03/24 00:47:10;;;;;;;20.83;12.43;;;5.50;98.60;;;;;;5009907;28;20214;-87
2022/03/24 00:49:39;;;;;;;18.07;11.63;;;5.40;98.70;;;;;;4994314;28;20207;-86
2022/03/24 00:52:05;;;;;;;20.90;12.33;;;5.40;98.80;;;;;;4993699;28;20204;-86
2022/03/24 00:54:32;;;;;;;18.43;12.73;;;5.30;98.60;;;;;;4993662;28;20727;-86
2022/03/24 00:56:58;;;;;;;19.13;13.20;;;5.10;98.50;;;;;;4993651;28;20190;-86
2022/03/24 00:59:24;;;;;;;20.53;13.37;;;4.90;98.60;;;;;;5004274;28;20202;-86
2022/03/24 01:01:50;;;;;;;21.90;13.00;;;4.90;99.20;;;;;;5012742;28;20233;-86
2022/03/24 01:04:16;;;;;;;19.67;13.13;;;4.80;99.20;;;;;;5013244;28;20179;-86
2022/03/24 01:06:43;;;;;;;20.60;13.80;;;4.80;99.20;;;;;;5013288;28;20213;-86
2022/03/24 01:09:09;;;;;;;20.73;13.30;;;4.80;99.50;;;;;;5012957;28;20181;-86
2022/03/24 01:11:35;;;;;;;18.87;13.00;;;4.70;99.80;;;;;;5012972;28;20205;-86
2022/03/24 01:14:01;;;;;;;21.00;13.70;;;4.70;99.70;;;;;;5013022;28;20178;-86
2022/03/24 01:16:28;;;;;;;25.37;13.33;;;4.60;99.40;;;;;;5029115;28;20179;-86
2022/03/24 01:18:54;;;;;;;22.33;13.10;;;4.70;99.70;;;;;;5012451;28;20201;-86
2022/03/24 01:21:19;;;;;;;20.23;13.57;;;4.70;99.80;;;;;;5014705;28;20194;-86
2022/03/24 01:23:46;;;;;;;21.10;13.33;;;4.70;99.80;;;;;;5017049;28;20213;-86
2022/03/24 01:26:13;;;;;;;17.80;12.80;;;4.60;99.90;;;;;;5016731;28;20217;-86
2022/03/24 01:28:40;;;;;;;20.53;12.93;;;4.50;99.90;;;;;;5033007;28;20186;-86
2022/03/24 01:31:08;;;;;;;18.87;12.37;;;4.50;99.90;;;;;;5016183;28;20186;-86
2022/03/24 01:33:38;;;;;;;21.77;12.50;;;4.40;99.90;;;;;;5016791;28;20183;-86
2022/03/24 01:36:09;;;;;;;20.10;13.63;;;4.40;99.90;;;;;;5016528;28;20190;-86
2022/03/24 01:38:35;;;;;;;20.43;13.13;;;4.40;99.90;;;;;;5016473;28;20187;-86
2022/03/24 01:41:03;;;;;;;21.20;13.70;;;4.40;99.90;;;;;;5015964;28;20269;-86
2022/03/24 01:43:30;;;;;;;20.47;13.40;;;4.40;99.90;;;;;;5016196;28;20225;-86
2022/03/24 01:45:56;;;;;;;21.80;14.03;;;4.40;99.90;;;;;;5016323;28;20220;-86
2022/03/24 01:48:22;;;;;;;21.53;12.60;;;4.50;99.90;;;;;;5016120;28;20282;-86
2022/03/24 01:50:51;;;;;;;19.20;12.17;;;4.40;99.90;;;;;;5034274;28;20174;-86
2022/03/24 01:53:18;;;;;;;18.37;12.63;;;4.40;99.90;;;;;;5017899;28;20181;-86
2022/03/24 01:55:48;;;;;;;19.50;13.20;;;4.30;99.90;;;;;;5018553;28;20244;-86
2022/03/24 01:58:14;;;;;;;23.10;14.03;;;4.30;99.90;;;;;;5035202;28;20213;-86
2022/03/24 02:00:44;;;;;;;20.83;13.63;;;4.20;99.90;;;;;;5019462;28;20183;-86
2022/03/24 02:03:14;;;;;;;19.87;12.97;;;4.10;99.90;;;;;;5019228;28;20203;-86
2022/03/24 02:05:42;;;;;;;21.93;13.97;;;4.10;99.90;;;;;;5017368;28;20209;-86
2022/03/24 02:08:09;;;;;;;18.23;12.87;;;4.00;99.90;;;;;;5015911;28;20179;-86
2022/03/24 02:10:36;;;;;;;18.33;12.83;;;4.00;99.90;;;;;;5015634;28;20256;-86
2022/03/24 02:13:04;;;;;;;22.07;13.70;;;4.00;99.90;;;;;;5015390;28;20623;-86
2022/03/24 02:15:32;;;;;;;22.17;13.53;;;3.90;99.90;;;;;;5015827;28;20265;-86
2022/03/24 02:17:58;;;;;;;21.17;14.37;;;3.80;99.90;;;;;;5015057;28;20185;-86
2022/03/24 02:20:27;;;;;;;21.53;14.40;;;3.70;99.90;;;;;;5013711;28;20179;-86
2022/03/24 02:22:53;;;;;;;26.00;14.20;;;3.70;99.90;;;;;;5015665;28;20213;-86
2022/03/24 02:25:22;;;;;;;21.23;13.47;;;3.70;99.90;;;;;;5015436;28;20183;-86
2022/03/24 02:27:52;;;;;;;18.97;13.37;;;3.60;99.90;;;;;;5015341;28;20511;-86
2022/03/24 02:30:18;;;;;;;21.53;14.37;;;3.50;99.90;;;;;;4997524;28;20183;-86
2022/03/24 02:32:44;;;;;;;21.93;14.00;;;3.40;99.90;;;;;;4994749;28;20567;-86
2022/03/24 02:35:10;;;;;;;23.00;14.87;;;3.50;99.90;;;;;;4995331;28;20183;-86
2022/03/24 02:37:36;;;;;;;23.70;13.83;;;3.40;99.90;;;;;;4995740;28;20524;-86
2022/03/24 02:40:04;;;;;;;21.23;14.40;;;3.40;99.90;;;;;;4995392;28;20186;-86
2022/03/24 02:42:32;;;;;;;20.43;13.53;;;3.30;99.90;;;;;;4995358;28;20206;-86
2022/03/24 02:45:06;;;;;;;24.43;14.77;;;3.20;99.90;;;;;;4995635;28;20670;-86
2022/03/24 02:47:32;;;;;;;21.50;13.80;;;3.20;99.90;;;;;;4995313;28;20242;-86
2022/03/24 02:49:59;;;;;;;22.53;14.33;;;3.20;99.90;;;;;;4995633;28;20174;-86
2022/03/24 02:52:26;;;;;;;22.20;13.53;;;3.20;99.90;;;;;;4995165;28;20231;-86
2022/03/24 02:54:52;;;;;;;18.77;14.10;;;3.10;99.90;;;;;;4994605;28;20228;-86
2022/03/24 02:57:18;;;;;;;22.50;14.10;;;3.10;99.90;;;;;;4995517;28;20227;-86
2022/03/24 02:59:44;;;;;;;23.47;14.33;;;3.10;99.90;;;;;;5025059;28;20194;-86
2022/03/24 03:02:13;;;;;;;25.53;14.60;;;3.10;99.90;;;;;;5015006;28;20206;-86
2022/03/24 03:04:44;;;;;;;23.83;14.63;;;3.10;99.90;;;;;;5014622;28;20220;-86
2022/03/24 03:07:11;;;;;;;25.00;14.70;;;3.00;99.90;;;;;;5014727;28;20232;-86
2022/03/24 03:09:39;;;;;;;23.10;14.30;;;3.00;99.90;;;;;;5014620;28;20185;-86
2022/03/24 03:12:05;;;;;;;20.47;14.10;;;2.90;99.90;;;;;;5014404;28;20204;-86
2022/03/24 03:14:32;;;;;;;24.50;14.00;;;2.90;99.90;;;;;;5014475;28;20279;-86
2022/03/24 03:16:58;;;;;;;21.47;14.07;;;2.80;99.90;;;;;;5014284;28;20221;-86
2022/03/24 03:19:25;;;;;;;21.83;14.17;;;2.70;99.90;;;;;;5014181;28;20193;-86
2022/03/24 03:21:52;;;;;;;21.50;13.97;;;2.60;99.90;;;;;;5014584;28;20813;-86
2022/03/24 03:24:21;;;;;;;22.90;13.97;;;2.40;99.90;;;;;;5014410;28;20250;-86
2022/03/24 03:26:48;;;;;;;20.87;13.13;;;2.40;99.90;;;;;;5030997;28;20580;-86
2022/03/24 03:29:14;;;;;;;19.67;12.53;;;2.30;99.90;;;;;;5013917;28;20190;-86
2022/03/24 03:31:40;;;;;;;20.07;13.53;;;2.10;99.90;;;;;;5030968;28;20201;-86
2022/03/24 03:34:08;;;;;;;24.13;14.23;;;2.00;99.90;;;;;;4998300;28;20207;-86
2022/03/24 03:36:37;;;;;;;22.57;13.63;;;2.00;99.90;;;;;;5014264;28;20269;-86
2022/03/24 03:39:07;;;;;;;24.20;13.67;;;1.80;99.90;;;;;;5014061;28;20195;-86
2022/03/24 03:41:35;;;;;;;26.23;14.57;;;1.80;99.90;;;;;;5013846;28;20209;-86
2022/03/24 03:44:02;;;;;;;19.87;13.90;;;1.70;99.90;;;;;;5029997;28;20275;-86
2022/03/24 03:46:28;;;;;;;22.90;14.30;;;1.70;99.90;;;;;;5030151;28;20212;-86
2022/03/24 03:48:54;;;;;;;22.47;14.33;;;1.80;99.90;;;;;;5030053;28;20193;-86
2022/03/24 03:51:20;;;;;;;23.13;14.07;;;1.70;99.90;;;;;;5014087;28;20287;-86
2022/03/24 03:53:46;;;;;;;22.47;14.40;;;1.70;99.90;;;;;;5014170;28;20240;-86
2022/03/24 03:56:14;;;;;;;24.63;15.23;;;1.60;99.90;;;;;;5014011;28;20187;-86
2022/03/24 03:58:40;;;;;;;22.20;13.90;;;1.50;99.90;;;;;;5030818;28;20282;-86
2022/03/24 04:01:08;;;;;;;22.33;13.73;;;1.50;99.90;;;;;;5013947;28;20272;-86
2022/03/24 04:03:36;;;;;;;21.17;13.53;;;1.40;99.90;;;;;;5030883;28;20264;-86
2022/03/24 04:06:05;;;;;;;25.90;14.50;;;1.50;99.90;;;;;;5014646;28;20208;-86
2022/03/24 04:08:32;;;;;;;26.70;14.40;;;1.70;99.90;;;;;;5031485;28;20183;-86
2022/03/24 04:10:58;;;;;;;22.70;14.73;;;1.70;99.90;;;;;;5014754;28;20188;-86
2022/03/24 04:13:26;;;;;;;21.70;14.27;;;1.90;99.90;;;;;;5014238;28;20207;-86
2022/03/24 04:15:55;;;;;;;23.97;14.23;;;2.10;99.90;;;;;;5014127;28;20204;-86
2022/03/24 04:18:25;;;;;;;24.63;13.87;;;2.20;99.90;;;;;;5030045;28;20183;-86
2022/03/24 04:20:51;;;;;;;21.17;13.53;;;2.20;99.90;;;;;;5029746;28;20179;-86
2022/03/24 04:23:17;;;;;;;20.60;13.73;;;2.20;99.90;;;;;;5029866;28;20637;-86
2022/03/24 04:25:45;;;;;;;20.70;13.57;;;2.30;99.90;;;;;;5013757;28;20300;-86
2022/03/24 04:28:11;;;;;;;20.53;13.30;;;2.30;99.90;;;;;;5013502;28;20259;-86
2022/03/24 04:30:38;;;;;;;23.07;14.20;;;2.30;99.90;;;;;;5010247;28;20237;-86
2022/03/24 04:33:04;;;;;;;19.57;13.80;;;2.30;99.90;;;;;;5004551;28;20206;-86
2022/03/24 04:35:33;;;;;;;24.47;14.60;;;2.20;99.90;;;;;;5017420;28;20180;-86
2022/03/24 04:38:00;;;;;;;21.50;13.70;;;2.10;99.90;;;;;;4996000;28;20182;-86
2022/03/24 04:40:26;;;;;;;21.80;14.30;;;2.10;99.90;;;;;;4995536;28;20276;-86
2022/03/24 04:42:54;;;;;;;23.83;14.13;;;1.90;99.90;;;;;;4993876;28;20208;-86
2022/03/24 04:45:21;;;;;;;24.13;14.57;;;1.90;99.90;;;;;;4993603;28;20186;-86
2022/03/24 04:47:48;;;;;;;20.67;13.57;;;1.90;99.90;;;;;;4993574;28;20252;-86
2022/03/24 04:50:15;;;;;;;27.87;13.83;;;2.00;99.90;;;;;;4993349;28;20193;-86
2022/03/24 04:52:41;;;;;;;21.47;14.47;;;2.10;99.90;;;;;;5009670;28;20193;-86
2022/03/24 04:55:09;;;;;;;24.97;14.30;;;2.10;99.90;;;;;;4993366;28;20220;-86
2022/03/24 04:57:35;;;;;;;19.87;14.10;;;2.20;99.90;;;;;;4997228;28;20284;-85
2022/03/24 05:00:01;;;;;;;22.50;14.07;;;2.20;99.90;;;;;;5012705;28;20304;-86
2022/03/24 05:02:43;;;;;;;19.40;13.43;;;2.20;99.90;;;;;;5016472;28;20197;-86
2022/03/24 05:05:09;;;;;;;21.37;14.10;;;2.20;99.90;;;;;;5036013;28;20659;-86
2022/03/24 05:07:35;;;;;;;22.33;14.03;;;2.10;99.90;;;;;;5019299;28;20205;-86
2022/03/24 05:10:01;;;;;;;23.47;14.47;;;2.10;99.90;;;;;;5018958;28;20181;-86
2022/03/24 05:12:27;;;;;;;21.77;13.73;;;2.10;99.90;;;;;;5019128;28;20213;-86
2022/03/24 05:14:55;;;;;;;21.77;14.23;;;2.20;99.90;;;;;;5019380;28;20176;-86
2022/03/24 05:17:22;;;;;;;23.37;14.07;;;2.10;99.90;;;;;;5019091;28;20180;-86
2022/03/24 05:19:48;;;;;;;24.50;14.43;;;2.20;99.90;;;;;;5019227;28;20186;-86
2022/03/24 05:22:16;;;;;;;20.77;13.83;;;2.10;99.90;;;;;;5019172;28;20203;-86
2022/03/24 05:24:43;;;;;;;22.53;13.93;;;2.00;99.90;;;;;;5019080;28;20184;-86
2022/03/24 05:27:10;;;;;;;23.60;14.40;;;2.00;99.90;;;;;;5019287;28;20212;-85
2022/03/24 05:29:37;;;;;;;25.60;14.57;;;1.90;99.90;;;;;;5018556;28;20243;-86
2022/03/24 05:32:04;;;;;;;19.37;13.50;;;1.90;99.90;;;;;;5035566;28;20196;-86
2022/03/24 05:34:31;;;;;;;21.73;13.60;;;1.80;99.90;;;;;;5035417;28;20211;-86
2022/03/24 05:36:57;;;;;;;22.60;13.30;;;1.80;99.90;;;;;;5019023;28;20213;-86
2022/03/24 05:39:23;;;;;;;20.73;13.00;;;1.70;99.90;;;;;;5020409;28;20184;-86
2022/03/24 05:41:49;;;;;;;20.43;13.20;;;1.70;99.90;;;;;;5033130;28;20200;-86
2022/03/24 05:44:15;;;;;;;22.07;13.43;;;1.80;99.90;;;;;;5016672;28;20188;-86
2022/03/24 05:46:44;;;;;;;21.00;14.27;;;1.80;99.90;;;;;;4999091;28;20299;-86
2022/03/24 05:49:15;;;;;;;21.30;13.17;;;1.80;99.90;;;;;;5002216;28;20650;-86
2022/03/24 05:52:00;;;;;;;23.17;13.83;;;1.80;99.90;;;;;;5013381;28;20196;-86
2022/03/24 05:54:37;;;;;;;25.47;15.03;;;1.80;99.90;;;;;;5005649;28;20229;-86
2022/03/24 05:57:10;;;;;;;27.63;15.13;;;1.80;99.90;;;;;;5007676;28;20319;-86
2022/03/24 05:59:38;;;;;;;25.77;15.13;;;1.90;99.90;;;;;;5009301;28;20205;-86
2022/03/24 06:02:04;;;;;;;26.17;15.63;;;1.90;99.90;;;;;;5009126;28;20204;-86
2022/03/24 06:04:31;;;;;;;24.17;14.67;;;1.90;99.90;;;;;;4997305;28;20242;-86
2022/03/24 06:06:58;;;;;;;34.83;16.57;;;1.90;99.90;;;;;;5014240;28;20217;-86
2022/03/24 06:09:24;;;;;;;24.07;14.03;;;2.00;99.90;;;;;;5017627;28;20184;-86
2022/03/24 06:11:52;;;;;;;27.50;15.33;;;2.00;99.90;;;;;;5014483;28;20200;-86
2022/03/24 06:14:18;;;;;;;22.13;13.80;;;2.10;99.90;;;;;;5015495;28;20172;-86
2022/03/24 06:16:44;;;;;;;22.23;14.10;;;2.10;99.90;;;;;;5032611;28;20196;-86
2022/03/24 06:19:10;;;;;;;22.93;14.10;;;2.20;99.90;;;;;;5028432;28;20188;-86
2022/03/24 06:21:39;;;;;;;21.50;14.23;;;2.20;99.90;;;;;;5028817;28;20341;-86
2022/03/24 06:24:07;;;;;;;22.40;14.20;;;2.30;99.90;;;;;;5018348;28;20195;-86
2022/03/24 06:26:33;;;;;;;21.43;13.37;;;2.40;99.90;;;;;;4998454;28;20219;-86
2022/03/24 06:29:01;;;;;;;21.17;14.27;;;2.40;99.90;;;;;;5008548;28;20266;-85
2022/03/24 06:31:27;;;;;;;24.23;15.30;;;2.50;99.90;;;;;;5015549;28;20208;-86
2022/03/24 06:33:53;;;;;;;22.70;14.27;;;2.50;99.90;;;;;;5019753;28;20171;-86
2022/03/24 06:36:19;;;;;;;25.90;16.17;;;2.60;99.90;;;;;;5019773;28;20235;-86
2022/03/24 06:38:45;;;;;;;23.80;15.27;;;2.80;99.90;;;;;;5018795;28;20239;-86
2022/03/24 06:41:14;;;;;;;25.53;15.43;;;2.90;99.90;;;;;;5020231;28;20205;-86
2022/03/24 06:43:41;;;;;;;25.93;16.07;;;3.00;99.90;;;;;;5020017;28;20186;-86
2022/03/24 06:46:07;;;;;;;23.73;15.77;;;3.10;99.90;;;;;;5019686;28;20201;-86
2022/03/24 06:48:33;;;;;;;27.13;16.23;;;3.20;99.90;;;;;;5018930;28;20213;-86
2022/03/24 06:50:59;;;;;;;25.60;16.20;;;3.30;99.90;;;;;;5017913;28;20181;-86
2022/03/24 06:53:25;;;;;;;26.00;15.77;;;3.20;99.90;;;;;;5017571;28;20189;-86
2022/03/24 06:55:51;;;;;;;24.87;15.70;;;3.20;99.90;;;;;;5033057;28;20201;-86
2022/03/24 06:58:17;;;;;;;24.80;15.87;;;3.20;99.90;;;;;;5015250;28;20188;-86
2022/03/24 07:00:43;;;;;;;24.20;14.80;;;3.30;99.90;;;;;;5031442;28;20185;-86
2022/03/24 07:03:10;;;;;;;27.47;17.00;;;3.50;99.90;;;;;;5015000;28;20213;-86
2022/03/24 07:05:37;;;;;;;26.03;15.17;;;3.70;99.90;;;;;;5015298;28;20252;-86
2022/03/24 07:08:04;;;;;;;23.43;15.13;;;3.90;99.90;;;;;;5014962;28;20185;-86
2022/03/24 07:10:31;;;;;;;22.30;14.60;;;4.10;99.90;;;;;;5015139;28;20186;-86
2022/03/24 07:13:16;;;;;;;23.10;14.87;;;4.20;99.90;;;;;;5032660;28;20728;-86
2022/03/24 07:15:42;;;;;;;23.33;14.53;;;4.30;99.90;;;;;;5016656;28;20198;-86
2022/03/24 07:18:08;;;;;;;21.37;14.07;;;4.50;99.90;;;;;;5030319;28;20198;-86
2022/03/24 07:20:36;;;;;;;21.63;14.17;;;4.60;99.90;;;;;;5014195;28;20190;-86
2022/03/24 07:23:03;;;;;;;23.37;15.57;;;4.80;99.90;;;;;;5031103;28;20203;-86
2022/03/24 07:25:33;;;;;;;25.93;16.03;;;4.90;99.90;;;;;;5031311;28;20208;-86
2022/03/24 07:28:00;;;;;;;22.60;14.60;;;5.00;99.90;;;;;;5014594;28;20179;-86
2022/03/24 07:30:27;;;;;;;21.83;14.27;;;5.20;99.90;;;;;;5014701;28;20220;-87
2022/03/24 07:32:55;;;;;;;23.43;13.77;;;5.30;99.90;;;;;;5014315;28;20214;-86
2022/03/24 07:35:24;;;;;;;27.53;14.97;;;5.40;99.90;;;;;;5014589;28;20187;-86
2022/03/24 07:37:50;;;;;;;23.97;14.63;;;5.60;99.90;;;;;;5030946;28;20309;-86
2022/03/24 07:40:18;;;;;;;24.87;15.40;;;5.70;99.90;;;;;;5014790;28;20297;-86
2022/03/24 07:42:49;;;;;;;21.10;15.07;;;5.80;99.90;;;;;;5015112;28;20202;-86
2022/03/24 07:45:16;;;;;;;26.53;16.43;;;6.00;99.90;;;;;;5031724;28;20194;-86
2022/03/24 07:48:06;;;;;;;24.87;16.17;;;6.10;99.90;;;;;;5031312;28;20223;-86
2022/03/24 07:50:33;;;;;;;22.47;15.77;;;6.30;99.90;;;;;;5030401;28;20244;-86
2022/03/24 07:53:16;;;;;;;23.97;16.20;;;6.50;99.90;;;;;;5030898;28;20200;-86
2022/03/24 07:55:44;;;;;;;20.67;15.10;;;6.60;99.90;;;;;;5014401;28;20234;-86
2022/03/24 07:58:15;;;;;;;23.43;15.03;;;6.80;99.90;;;;;;5014015;28;20183;-86
2022/03/24 08:00:42;;;;;;;23.60;16.27;;;7.00;99.90;;;;;;5014023;28;20645;-86
2022/03/24 08:03:14;;;;;;;24.30;16.40;;;7.10;99.90;;;;;;5014040;28;20196;-86
2022/03/24 08:05:40;;;;;;;23.30;16.27;;;7.30;99.90;;;;;;5014022;28;20190;-86
2022/03/24 08:08:10;;;;;;;20.80;16.30;;;7.40;99.90;;;;;;5013751;28;20209;-86
2022/03/24 08:10:41;;;;;;;22.27;15.20;;;7.60;99.90;;;;;;5013842;28;20213;-86
2022/03/24 08:13:09;;;;;;;20.80;14.93;;;7.70;99.90;;;;;;5013830;28;20197;-86
2022/03/24 08:15:36;;;;;;;26.93;15.80;;;7.90;99.90;;;;;;5013798;28;20191;-86
2022/03/24 08:18:04;;;;;;;22.67;15.00;;;7.90;99.90;;;;;;5013734;28;20211;-86
2022/03/24 08:20:30;;;;;;;23.83;15.10;;;8.20;99.90;;;;;;5013800;28;20185;-86
2022/03/24 08:22:56;;;;;;;22.90;15.17;;;8.40;99.90;;;;;;5013491;28;20202;-86
2022/03/24 08:25:23;;;;;;;20.30;15.00;;;8.60;99.90;;;;;;5030281;28;20178;-84
2022/03/24 08:27:48;;;;;;;23.87;15.50;;;8.80;99.90;;;;;;5013920;28;20213;-83
2022/03/24 08:30:15;;;;;;;21.47;15.87;;;8.90;99.90;;;;;;5013561;28;20241;-84
2022/03/24 08:32:41;;;;;;;23.03;14.83;;;9.20;99.90;;;;;;5013697;28;20678;-84
2022/03/24 08:35:08;;;;;;;19.33;15.17;;;9.40;99.90;;;;;;5030172;28;20566;-85
2022/03/24 08:37:34;;;;;;;24.20;14.97;;;9.60;99.90;;;;;;5029692;28;20183;-85
2022/03/24 08:40:00;;;;;;;23.43;15.20;;;9.80;99.90;;;;;;5013405;28;20186;-85
2022/03/24 08:42:26;;;;;;;20.23;14.43;;;10.00;99.90;;;;;;5013290;28;20203;-85
2022/03/24 08:44:52;;;;;;;20.93;15.03;;;10.20;99.90;;;;;;5029801;28;20237;-85
2022/03/24 08:47:18;;;;;;;22.27;15.27;;;10.40;99.90;;;;;;5013483;28;20206;-85
2022/03/24 08:49:43;;;;;;;20.27;15.57;;;10.40;99.90;;;;;;5029630;28;20182;-85
2022/03/24 08:52:10;;;;;;;22.90;15.23;;;10.60;99.90;;;;;;5012961;28;20202;-85
2022/03/24 08:54:36;;;;;;;21.43;16.20;;;10.80;99.90;;;;;;5029717;28;20237;-85
2022/03/24 08:57:02;;;;;;;21.70;15.60;;;11.00;99.90;;;;;;5029657;28;20186;-85
2022/03/24 08:59:28;;;;;;;20.80;15.53;;;10.90;99.90;;;;;;5029405;28;20194;-84
2022/03/24 09:01:54;;;;;;;22.57;15.03;;;11.00;99.90;;;;;;5013194;28;20293;-85
2022/03/24 09:04:23;;;;;;;22.83;15.47;;;11.20;99.90;;;;;;5013137;28;20277;-85
2022/03/24 09:06:49;;;;;;;23.73;15.67;;;11.40;99.90;;;;;;5013092;28;20214;-85
2022/03/24 09:09:15;;;;;;;19.67;14.57;;;11.40;99.40;;;;;;5012935;28;20208;-84
2022/03/24 09:11:41;;;;;;;22.17;16.00;;;11.50;98.80;;;;;;5013023;28;20219;-85
2022/03/24 09:14:07;;;;;;;22.33;15.97;;;11.70;98.30;;;;;;5012872;28;20202;-85
2022/03/24 09:16:33;;;;;;;23.37;15.93;;;11.70;97.90;;;;;;5012878;28;20217;-85
2022/03/24 09:18:59;;;;;;;25.13;16.20;;;11.90;98.00;;;;;;5012566;28;20217;-85
2022/03/24 09:22:00;;;;;;;21.27;15.13;;;12.10;98.30;;;;;;5012623;28;20539;-85
2022/03/24 09:24:27;;;;;;;20.50;15.13;;;12.30;98.00;;;;;;5029161;28;20210;-85
2022/03/24 09:26:53;;;;;;;22.67;16.80;;;12.50;98.10;;;;;;5012750;28;20204;-85
2022/03/24 09:29:20;;;;;;;22.53;16.50;;;12.70;97.50;;;;;;5012693;28;20208;-85
2022/03/24 09:31:47;;;;;;;21.20;15.73;;;12.80;96.90;;;;;;5028683;28;20198;-85
2022/03/24 09:34:13;;;;;;;23.13;16.23;;;13.00;96.80;;;;;;5012376;28;20185;-85
2022/03/24 09:36:40;;;;;;;19.50;15.53;;;13.10;95.90;;;;;;5028969;28;20193;-85
2022/03/24 09:39:07;;;;;;;23.03;15.63;;;13.20;96.20;;;;;;5012614;28;20183;-85
2022/03/24 09:41:35;;;;;;;22.13;15.70;;;13.30;96.80;;;;;;5029487;28;20677;-85
2022/03/24 09:44:02;;;;;;;23.00;16.23;;;13.30;96.50;;;;;;5016258;28;20210;-85
2022/03/24 09:46:28;;;;;;;20.70;15.87;;;13.50;96.60;;;;;;5016143;28;20199;-85
2022/03/24 09:48:55;;;;;;;27.43;17.17;;;13.70;96.00;;;;;;5015880;28;20211;-85
2022/03/24 09:51:27;;;;;;;22.43;15.50;;;13.80;97.50;;;;;;5032610;28;20267;-85
2022/03/24 09:53:53;;;;;;;19.30;15.50;;;14.00;97.40;;;;;;5016365;28;20221;-85
2022/03/24 09:56:19;;;;;;;20.57;15.30;;;14.30;96.50;;;;;;5016093;28;20183;-85
2022/03/24 09:58:49;;;;;;;20.90;15.57;;;14.50;95.60;;;;;;5015686;28;20281;-85
2022/03/24 10:01:17;;;;;;;24.23;16.03;;;14.60;94.60;;;;;;5032570;28;20197;-85
2022/03/24 10:04:21;;;;;;;23.00;15.93;;;14.70;95.20;;;;;;5032488;28;20186;-85
2022/03/24 10:07:01;;;;;;;22.00;16.53;;;15.00;94.90;;;;;;4969391;28;20278;-85
2022/03/24 10:09:44;;;;;;;20.97;15.97;;;15.20;94.50;;;;;;4992664;28;20183;-85
2022/03/24 10:12:22;;;;;;;22.13;16.27;;;15.30;93.90;;;;;;5013478;28;20210;-85
2022/03/24 10:15:07;;;;;;;22.27;16.97;;;15.50;94.10;;;;;;5016112;28;20182;-85
2022/03/24 10:17:34;;;;;;;20.00;15.90;;;15.70;93.20;;;;;;5015343;28;20734;-85
2022/03/24 10:20:14;;;;;;;20.97;15.77;;;15.80;93.80;;;;;;5015453;28;20184;-85
2022/03/24 10:22:59;;;;;;;20.07;15.80;;;16.00;92.10;;;;;;5015598;28;20202;-85
2022/03/24 10:25:33;;;;;;;19.77;15.53;;;16.20;92.30;;;;;;5015685;28;20174;-85
2022/03/24 10:28:09;;;;;;;18.87;15.37;;;16.30;87.30;;;;;;5015399;28;20213;-85
2022/03/24 10:30:52;;;;;;;18.57;15.03;;;16.30;88.50;;;;;;5031931;28;20179;-85
2022/03/24 10:33:47;;;;;;;20.53;15.27;;;16.40;85.40;;;;;;5015479;28;20174;-85
2022/03/24 10:36:19;;;;;;;20.70;14.87;;;16.50;87.00;;;;;;5013502;28;20200;-85
2022/03/24 10:38:53;;;;;;;19.90;15.20;;;16.70;84.50;;;;;;5015400;28;20193;-85
2022/03/24 10:41:27;;;;;;;17.30;14.17;;;16.90;87.00;;;;;;5031698;28;20198;-85
2022/03/24 10:43:55;;;;;;;18.85;14.18;;;17.10;84.40;;;;;;5031945;28;20180;-85
2022/03/24 10:46:29;;;;;;;18.92;14.10;;;17.30;79.00;;;;;;5015097;28;20249;-85
2022/03/24 10:48:55;;;;;;;19.58;14.88;;;17.30;78.90;;;;;;5014752;28;20190;-85
2022/03/24 10:51:29;;;;;;;18.42;14.93;;;17.50;75.60;;;;;;5014962;28;20202;-85
2022/03/24 10:54:17;;;;;;;17.83;14.02;;;17.50;77.20;;;;;;5030953;28;20178;-85
2022/03/24 10:57:20;;;;;;;17.88;14.95;;;17.70;76.90;;;;;;5031527;28;20278;-85
2022/03/24 10:59:58;;;;;;;17.20;13.65;;;17.80;77.40;;;;;;5031224;28;20198;-85
2022/03/24 11:02:28;;;;;;;19.70;14.75;;;18.00;78.90;;;;;;5015080;28;20210;-85
2022/03/24 11:04:59;;;;;;;18.15;13.68;;;18.10;78.60;;;;;;5032000;28;20216;-85
2022/03/24 11:07:26;;;;;;;18.85;14.95;;;18.10;79.30;;;;;;5032204;28;20206;-85
2022/03/24 11:09:52;;;;;;;15.90;13.77;;;18.30;76.10;;;;;;5018877;28;20229;-83
2022/03/24 11:12:27;;;;;;;17.95;15.32;;;18.40;79.20;;;;;;5038167;28;20203;-83
2022/03/24 11:14:58;;;;;;;16.38;14.30;;;18.60;77.00;;;;;;5022310;28;20202;-84
2022/03/24 11:17:25;;;;;;;17.90;14.98;;;18.80;76.60;;;;;;5019923;28;20176;-84
2022/03/24 11:20:15;;;;;;;18.88;15.05;;;18.90;77.20;;;;;;5006538;28;20186;-82
2022/03/24 11:22:57;;;;;;;19.98;16.00;;;18.80;74.30;;;;;;5021971;28;20564;-82
2022/03/24 11:25:26;;;;;;;18.58;14.88;;;18.80;76.40;;;;;;5014390;28;20178;-86
2022/03/24 11:27:53;;;;;;;18.88;15.75;;;18.90;75.40;;;;;;5016250;28;20206;-86
2022/03/24 11:30:20;;;;;;;22.48;17.85;;;19.10;74.50;;;;;;5015828;28;20655;-86
2022/03/24 11:32:52;;;;;;;18.65;15.57;;;19.10;72.30;;;;;;5030198;28;20694;-86
2022/03/24 11:35:20;;;;;;;22.40;15.60;;;19.20;76.10;;;;;;5030861;28;20178;-86
2022/03/24 11:37:48;;;;;;;17.80;14.63;;;19.20;73.90;;;;;;5031059;28;20174;-86
2022/03/24 11:40:25;;;;;;;17.58;15.32;;;19.20;74.70;;;;;;5013730;28;20186;-86
2022/03/24 11:43:12;;;;;;;16.75;14.80;;;19.40;75.70;;;;;;5014393;28;20202;-86
2022/03/24 11:45:54;;;;;;;17.33;15.27;;;19.60;73.60;;;;;;5032423;28;20189;-85
2022/03/24 11:48:32;;;;;;;21.45;16.40;;;19.50;73.50;;;;;;5015767;28;20252;-86
2022/03/24 11:51:02;;;;;;;17.42;15.13;;;19.60;71.10;;;;;;5032390;28;20193;-86
2022/03/24 11:53:28;;;;;;;19.38;15.70;;;19.60;71.10;;;;;;5015743;28;20170;-85
2022/03/24 11:56:03;;;;;;;19.30;15.75;;;19.70;69.80;;;;;;5016038;28;20182;-86
2022/03/24 11:58:44;;;;;;;18.20;15.50;;;19.80;70.40;;;;;;5012529;28;20221;-86
2022/03/24 12:01:20;;;;;;;16.27;13.45;;;19.90;70.60;;;;;;5012523;28;20210;-86
2022/03/24 12:03:48;;;;;;;18.77;14.70;;;20.00;68.30;;;;;;5011823;28;20593;-86
2022/03/24 12:06:19;;;;;;;17.08;14.68;;;20.20;71.60;;;;;;5011266;28;20230;-86
2022/03/24 12:09:00;;;;;;;15.38;13.77;;;20.40;71.00;;;;;;4995396;28;20183;-86
2022/03/24 12:11:32;;;;;;;16.00;13.10;;;20.70;69.40;;;;;;4996346;28;20209;-86
2022/03/24 12:14:07;;;;;;;16.42;13.95;;;20.80;65.80;;;;;;4995774;28;20179;-86
2022/03/24 12:16:40;;;;;;;16.17;14.07;;;20.90;66.40;;;;;;4996285;28;20186;-86
2022/03/24 12:19:28;;;;;;;19.88;13.80;;;20.80;64.60;;;;;;4995508;28;20175;-86
2022/03/24 12:21:57;;;;;;;15.77;14.15;;;20.80;66.10;;;;;;5018253;28;20221;-86
2022/03/24 12:24:22;;;;;;;15.65;14.05;;;21.00;66.60;;;;;;5015690;28;20265;-86
2022/03/24 12:26:56;;;;;;;17.83;14.35;;;21.20;65.70;;;;;;5007358;28;20285;-86
2022/03/24 12:29:24;;;;;;;19.02;14.07;;;21.40;65.30;;;;;;5002950;28;20206;-86
2022/03/24 12:32:03;;;;;;;16.02;13.95;;;21.30;62.10;;;;;;5012820;28;20191;-86
2022/03/24 12:34:45;;;;;;;17.48;15.52;;;21.50;65.40;;;;;;5001625;28;20198;-86
2022/03/24 12:37:27;;;;;;;16.98;15.20;;;21.70;64.30;;;;;;5002657;28;20176;-86
2022/03/24 12:40:14;;;;;;;18.52;15.95;;;21.30;63.90;;;;;;5003459;28;20183;-86
2022/03/24 12:42:49;;;;;;;18.85;15.00;;;21.20;64.10;;;;;;5013258;28;20206;-86